Shavertown, Pennsylvania
Current Conditions -  °F | °C
As of 8:54 AM on Monday 26 Jan 2015 (Local Time) from KAVP Reporting Station
Light Snow Light Snow  
Wind Chill:   Ceiling: 2300
Heat Index: 19°   Visibility: 3mi
Dew Point: 10°   Wind: 9mph
Humidity: 68%   Direction: 50°NE
Pressure: 29.89"   Gusts: NA
Location:  41.31°N, 75.94°W
Report Text: KAVP 261354Z AUTO 05008KT 3SM -SN BKN023 OVC028 M07/M12 A2989 RMK AO2 SNB18 SLP134 P0000 T10721122
Loading
Personal Weather Stations






























Interactive Weather Map New forecast layout! Learn more

10-Day Weather Forecast

Advertisements
Track Severe Weather on mobile